sensor_id;sensor_type;location;lat;lon;timestamp;pressure;altitude;pressure_sealevel;temperature;humidity
42591;BME280;28218;53.342;-6.216;2023-11-21T00:00:49;102293.38;;;9.44;100.00
42591;BME280;28218;53.342;-6.216;2023-11-21T00:03:18;102289.91;;;9.44;100.00
42591;BME280;28218;53.342;-6.216;2023-11-21T00:05:47;102289.56;;;9.37;100.00
42591;BME280;28218;53.342;-6.216;2023-11-21T00:08:17;102302.81;;;9.36;100.00
42591;BME280;28218;53.342;-6.216;2023-11-21T00:10:45;102295.19;;;9.33;100.00
42591;BME280;28218;53.342;-6.216;2023-11-21T00:13:15;102284.78;;;9.31;100.00
42591;BME280;28218;53.342;-6.216;2023-11-21T00:15:43;102288.97;;;9.34;100.00
42591;BME280;28218;53.342;-6.216;2023-11-21T00:18:11;102278.81;;;9.29;100.00
42591;BME280;28218;53.342;-6.216;2023-11-21T00:20:40;102283.13;;;9.30;100.00
42591;BME280;28218;53.342;-6.216;2023-11-21T00:23:09;102294.59;;;9.29;100.00
42591;BME280;28218;53.342;-6.216;2023-11-21T00:25:38;102279.03;;;9.26;100.00
42591;BME280;28218;53.342;-6.216;2023-11-21T00:28:07;102287.91;;;9.25;100.00
42591;BME280;28218;53.342;-6.216;2023-11-21T00:30:35;102302.03;;;9.24;100.00
42591;BME280;28218;53.342;-6.216;2023-11-21T00:33:03;102292.69;;;9.20;100.00
42591;BME280;28218;53.342;-6.216;2023-11-21T00:35:32;102304.03;;;9.20;100.00
42591;BME280;28218;53.342;-6.216;2023-11-21T00:38:00;102317.31;;;9.19;100.00
42591;BME280;28218;53.342;-6.216;2023-11-21T00:40:30;102315.41;;;9.21;100.00
42591;BME280;28218;53.342;-6.216;2023-11-21T00:43:00;102326.75;;;9.21;100.00
42591;BME280;28218;53.342;-6.216;2023-11-21T00:45:31;102334.63;;;9.21;100.00
42591;BME280;28218;53.342;-6.216;2023-11-21T00:48:00;102329.50;;;9.20;100.00
42591;BME280;28218;53.342;-6.216;2023-11-21T00:50:28;102339.34;;;9.18;100.00
42591;BME280;28218;53.342;-6.216;2023-11-21T00:52:56;102352.56;;;9.16;100.00
42591;BME280;28218;53.342;-6.216;2023-11-21T00:55:25;102352.84;;;9.13;100.00
42591;BME280;28218;53.342;-6.216;2023-11-21T00:57:53;102365.16;;;9.13;100.00
42591;BME280;28218;53.342;-6.216;2023-11-21T01:00:23;102356.31;;;9.14;100.00
42591;BME280;28218;53.342;-6.216;2023-11-21T01:02:51;102362.53;;;9.13;100.00
42591;BME280;28218;53.342;-6.216;2023-11-21T01:05:19;102358.31;;;9.10;100.00
42591;BME280;28218;53.342;-6.216;2023-11-21T01:07:47;102375.66;;;9.13;100.00
42591;BME280;28218;53.342;-6.216;2023-11-21T01:10:16;102370.41;;;9.13;100.00
42591;BME280;28218;53.342;-6.216;2023-11-21T01:12:44;102377.34;;;9.14;100.00
42591;BME280;28218;53.342;-6.216;2023-11-21T01:15:12;102373.97;;;9.12;100.00
42591;BME280;28218;53.342;-6.216;2023-11-21T01:17:42;102386.28;;;9.11;100.00
42591;BME280;28218;53.342;-6.216;2023-11-21T01:20:11;102384.75;;;9.09;100.00
42591;BME280;28218;53.342;-6.216;2023-11-21T01:22:41;102390.84;;;9.09;100.00
42591;BME280;28218;53.342;-6.216;2023-11-21T01:25:10;102389.16;;;9.08;100.00
42591;BME280;28218;53.342;-6.216;2023-11-21T01:27:37;102397.16;;;9.07;100.00
42591;BME280;28218;53.342;-6.216;2023-11-21T01:30:06;102404.94;;;9.08;100.00
42591;BME280;28218;53.342;-6.216;2023-11-21T01:32:37;102406.63;;;9.09;100.00
42591;BME280;28218;53.342;-6.216;2023-11-21T01:35:09;102411.25;;;9.06;100.00
42591;BME280;28218;53.342;-6.216;2023-11-21T01:37:38;102410.44;;;9.05;100.00
42591;BME280;28218;53.342;-6.216;2023-11-21T01:40:07;102407.94;;;9.04;100.00
42591;BME280;28218;53.342;-6.216;2023-11-21T01:42:41;102407.81;;;9.05;100.00
42591;BME280;28218;53.342;-6.216;2023-11-21T01:45:10;102412.44;;;9.02;100.00
42591;BME280;28218;53.342;-6.216;2023-11-21T01:47:40;102418.88;;;8.98;100.00
42591;BME280;28218;53.342;-6.216;2023-11-21T01:50:14;102413.63;;;8.98;100.00
42591;BME280;28218;53.342;-6.216;2023-11-21T01:52:44;102425.22;;;8.95;100.00
42591;BME280;28218;53.342;-6.216;2023-11-21T01:55:15;102427.72;;;8.96;100.00
42591;BME280;28218;53.342;-6.216;2023-11-21T01:57:54;102421.78;;;8.94;100.00
42591;BME280;28218;53.342;-6.216;2023-11-21T02:00:23;102426.41;;;8.91;100.00
42591;BME280;28218;53.342;-6.216;2023-11-21T02:02:52;102429.03;;;8.91;100.00
42591;BME280;28218;53.342;-6.216;2023-11-21T02:05:22;102435.13;;;8.91;100.00
42591;BME280;28218;53.342;-6.216;2023-11-21T02:07:50;102426.53;;;8.89;100.00
42591;BME280;28218;53.342;-6.216;2023-11-21T02:10:19;102433.69;;;8.87;100.00
42591;BME280;28218;53.342;-6.216;2023-11-21T02:12:50;102431.88;;;8.88;100.00
42591;BME280;28218;53.342;-6.216;2023-11-21T02:15:19;102432.13;;;8.85;100.00
42591;BME280;28218;53.342;-6.216;2023-11-21T02:17:49;102432.22;;;8.83;100.00
42591;BME280;28218;53.342;-6.216;2023-11-21T02:20:19;102437.28;;;8.86;100.00
42591;BME280;28218;53.342;-6.216;2023-11-21T02:22:51;102448.97;;;8.82;100.00
42591;BME280;28218;53.342;-6.216;2023-11-21T02:25:25;102448.25;;;8.80;100.00
42591;BME280;28218;53.342;-6.216;2023-11-21T02:27:55;102464.13;;;8.79;100.00
42591;BME280;28218;53.342;-6.216;2023-11-21T02:30:24;102470.22;;;8.79;100.00
42591;BME280;28218;53.342;-6.216;2023-11-21T02:32:54;102474.53;;;8.80;100.00
42591;BME280;28218;53.342;-6.216;2023-11-21T02:35:24;102488.84;;;8.76;100.00
42591;BME280;28218;53.342;-6.216;2023-11-21T02:37:54;102491.34;;;8.78;100.00
42591;BME280;28218;53.342;-6.216;2023-11-21T02:40:22;102500.06;;;8.78;100.00
42591;BME280;28218;53.342;-6.216;2023-11-21T02:42:52;102504.50;;;8.78;100.00
42591;BME280;28218;53.342;-6.216;2023-11-21T02:45:20;102519.56;;;8.76;100.00
42591;BME280;28218;53.342;-6.216;2023-11-21T02:47:49;102523.13;;;8.75;100.00
42591;BME280;28218;53.342;-6.216;2023-11-21T02:50:17;102523.97;;;8.75;100.00
42591;BME280;28218;53.342;-6.216;2023-11-21T02:52:47;102534.50;;;8.75;100.00
42591;BME280;28218;53.342;-6.216;2023-11-21T02:55:17;102539.75;;;8.75;100.00
42591;BME280;28218;53.342;-6.216;2023-11-21T02:57:45;102539.00;;;8.73;100.00
42591;BME280;28218;53.342;-6.216;2023-11-21T03:00:14;102541.50;;;8.75;100.00
42591;BME280;28218;53.342;-6.216;2023-11-21T03:02:42;102543.53;;;8.71;100.00
42591;BME280;28218;53.342;-6.216;2023-11-21T03:05:11;102548.88;;;8.69;100.00
42591;BME280;28218;53.342;-6.216;2023-11-21T03:07:39;102552.34;;;8.70;100.00
42591;BME280;28218;53.342;-6.216;2023-11-21T03:10:08;102551.44;;;8.71;100.00
42591;BME280;28218;53.342;-6.216;2023-11-21T03:12:40;102548.81;;;8.71;100.00
42591;BME280;28218;53.342;-6.216;2023-11-21T03:15:08;102548.81;;;8.71;100.00
42591;BME280;28218;53.342;-6.216;2023-11-21T03:17:37;102554.16;;;8.69;100.00
42591;BME280;28218;53.342;-6.216;2023-11-21T03:20:06;102554.28;;;8.68;100.00
42591;BME280;28218;53.342;-6.216;2023-11-21T03:22:38;102557.72;;;8.68;100.00
42591;BME280;28218;53.342;-6.216;2023-11-21T03:25:07;102554.47;;;8.65;100.00
42591;BME280;28218;53.342;-6.216;2023-11-21T03:27:39;102557.09;;;8.65;100.00
42591;BME280;28218;53.342;-6.216;2023-11-21T03:30:09;102570.25;;;8.65;100.00
42591;BME280;28218;53.342;-6.216;2023-11-21T03:32:37;102569.53;;;8.63;100.00
42591;BME280;28218;53.342;-6.216;2023-11-21T03:35:06;102573.94;;;8.62;100.00
42591;BME280;28218;53.342;-6.216;2023-11-21T03:37:35;102568.78;;;8.61;100.00
42591;BME280;28218;53.342;-6.216;2023-11-21T03:40:06;102571.53;;;8.59;100.00
42591;BME280;28218;53.342;-6.216;2023-11-21T03:42:35;102569.03;;;8.58;100.00
42591;BME280;28218;53.342;-6.216;2023-11-21T03:45:07;102563.78;;;8.58;100.00
42591;BME280;28218;53.342;-6.216;2023-11-21T03:47:36;102559.69;;;8.54;100.00
42591;BME280;28218;53.342;-6.216;2023-11-21T03:50:05;102563.97;;;8.55;100.00
42591;BME280;28218;53.342;-6.216;2023-11-21T03:52:33;102554.44;;;8.54;100.00
42591;BME280;28218;53.342;-6.216;2023-11-21T03:55:02;102568.28;;;8.56;100.00
42591;BME280;28218;53.342;-6.216;2023-11-21T03:57:30;102578.91;;;8.54;100.00
42591;BME280;28218;53.342;-6.216;2023-11-21T03:59:58;102602.69;;;8.53;100.00
42591;BME280;28218;53.342;-6.216;2023-11-21T04:02:28;102602.69;;;8.53;100.00
42591;BME280;28218;53.342;-6.216;2023-11-21T04:04:58;102610.44;;;8.54;100.00
42591;BME280;28218;53.342;-6.216;2023-11-21T04:07:26;102609.81;;;8.51;100.00
42591;BME280;28218;53.342;-6.216;2023-11-21T04:09:54;102611.72;;;8.49;100.00
42591;BME280;28218;53.342;-6.216;2023-11-21T04:12:23;102620.56;;;8.48;100.00
42591;BME280;28218;53.342;-6.216;2023-11-21T04:14:52;102617.19;;;8.45;100.00
42591;BME280;28218;53.342;-6.216;2023-11-21T04:17:21;102608.78;;;8.40;100.00
42591;BME280;28218;53.342;-6.216;2023-11-21T04:19:53;102598.28;;;8.40;100.00
42591;BME280;28218;53.342;-6.216;2023-11-21T04:22:21;102601.19;;;8.36;100.00
42591;BME280;28218;53.342;-6.216;2023-11-21T04:24:50;102597.72;;;8.35;100.00
42591;BME280;28218;53.342;-6.216;2023-11-21T04:27:18;102610.84;;;8.35;100.00
42591;BME280;28218;53.342;-6.216;2023-11-21T04:29:46;102610.97;;;8.34;100.00
42591;BME280;28218;53.342;-6.216;2023-11-21T04:32:14;102610.97;;;8.34;100.00
42591;BME280;28218;53.342;-6.216;2023-11-21T04:34:42;102618.84;;;8.34;100.00
42591;BME280;28218;53.342;-6.216;2023-11-21T04:37:12;102631.88;;;8.35;100.00
42591;BME280;28218;53.342;-6.216;2023-11-21T04:39:40;102623.28;;;8.33;100.00
42591;BME280;28218;53.342;-6.216;2023-11-21T04:42:08;102619.69;;;8.34;100.00
42591;BME280;28218;53.342;-6.216;2023-11-21T04:44:36;102626.81;;;8.32;100.00
42591;BME280;28218;53.342;-6.216;2023-11-21T04:47:05;102630.63;;;8.28;100.00
42591;BME280;28218;53.342;-6.216;2023-11-21T04:49:33;102627.06;;;8.29;100.00
42591;BME280;28218;53.342;-6.216;2023-11-21T04:52:02;102628.09;;;8.27;100.00
42591;BME280;28218;53.342;-6.216;2023-11-21T04:54:33;102647.31;;;8.27;100.00
42591;BME280;28218;53.342;-6.216;2023-11-21T04:57:02;102646.41;;;8.28;100.00
42591;BME280;28218;53.342;-6.216;2023-11-21T04:59:31;102654.28;;;8.28;100.00
42591;BME280;28218;53.342;-6.216;2023-11-21T05:02:00;102647.22;;;8.29;100.00
42591;BME280;28218;53.342;-6.216;2023-11-21T05:04:28;102651.66;;;8.28;100.00
42591;BME280;28218;53.342;-6.216;2023-11-21T05:06:56;102648.16;;;8.28;100.00
42591;BME280;28218;53.342;-6.216;2023-11-21T05:09:24;102653.41;;;8.28;100.00
42591;BME280;28218;53.342;-6.216;2023-11-21T05:11:56;102657.75;;;8.29;100.00
42591;BME280;28218;53.342;-6.216;2023-11-21T05:14:24;102663.91;;;8.28;100.00
42591;BME280;28218;53.342;-6.216;2023-11-21T05:16:52;102667.50;;;8.27;100.00
42591;BME280;28218;53.342;-6.216;2023-11-21T05:19:21;102679.59;;;8.29;100.00
42591;BME280;28218;53.342;-6.216;2023-11-21T05:21:49;102681.25;;;8.30;100.00
42591;BME280;28218;53.342;-6.216;2023-11-21T05:24:17;102679.34;;;8.32;100.00
42591;BME280;28218;53.342;-6.216;2023-11-21T05:26:46;102681.16;;;8.32;100.00
42591;BME280;28218;53.342;-6.216;2023-11-21T05:29:15;102674.97;;;8.33;100.00
42591;BME280;28218;53.342;-6.216;2023-11-21T05:31:44;102669.72;;;8.33;100.00
42591;BME280;28218;53.342;-6.216;2023-11-21T05:34:12;102673.25;;;8.32;100.00
42591;BME280;28218;53.342;-6.216;2023-11-21T05:36:44;102687.22;;;8.32;100.00
42591;BME280;28218;53.342;-6.216;2023-11-21T05:39:14;102694.19;;;8.33;100.00
42591;BME280;28218;53.342;-6.216;2023-11-21T05:41:44;102701.00;;;8.36;100.00
42591;BME280;28218;53.342;-6.216;2023-11-21T05:44:16;102716.88;;;8.34;100.00
42591;BME280;28218;53.342;-6.216;2023-11-21T05:46:45;102717.63;;;8.36;100.00
42591;BME280;28218;53.342;-6.216;2023-11-21T05:49:13;102725.44;;;8.38;100.00
42591;BME280;28218;53.342;-6.216;2023-11-21T05:51:42;102715.00;;;8.36;100.00
42591;BME280;28218;53.342;-6.216;2023-11-21T05:54:12;102720.34;;;8.35;100.00
42591;BME280;28218;53.342;-6.216;2023-11-21T05:56:40;102717.72;;;8.35;100.00
42591;BME280;28218;53.342;-6.216;2023-11-21T05:59:08;102718.75;;;8.32;100.00
42591;BME280;28218;53.342;-6.216;2023-11-21T06:01:38;102715.28;;;8.32;100.00
42591;BME280;28218;53.342;-6.216;2023-11-21T06:04:06;102715.41;;;8.30;100.00
42591;BME280;28218;53.342;-6.216;2023-11-21T06:06:36;102712.88;;;8.29;100.00
42591;BME280;28218;53.342;-6.216;2023-11-21T06:09:04;102716.56;;;8.26;100.00
42591;BME280;28218;53.342;-6.216;2023-11-21T06:11:35;102715.59;;;8.27;100.00
42591;BME280;28218;53.342;-6.216;2023-11-21T06:14:03;102721.81;;;8.26;100.00
42591;BME280;28218;53.342;-6.216;2023-11-21T06:16:34;102717.38;;;8.27;100.00
42591;BME280;28218;53.342;-6.216;2023-11-21T06:19:04;102727.69;;;8.30;100.00
42591;BME280;28218;53.342;-6.216;2023-11-21T06:21:33;102736.53;;;8.29;100.00
42591;BME280;28218;53.342;-6.216;2023-11-21T06:24:02;102743.66;;;8.27;100.00
42591;BME280;28218;53.342;-6.216;2023-11-21T06:26:30;102747.22;;;8.26;100.00
42591;BME280;28218;53.342;-6.216;2023-11-21T06:28:59;102745.56;;;8.25;100.00
42591;BME280;28218;53.342;-6.216;2023-11-21T06:31:27;102744.72;;;8.24;100.00
42591;BME280;28218;53.342;-6.216;2023-11-21T06:33:55;102745.63;;;8.23;100.00
42591;BME280;28218;53.342;-6.216;2023-11-21T06:36:28;102746.59;;;8.22;100.00
42591;BME280;28218;53.342;-6.216;2023-11-21T06:38:56;102734.41;;;8.21;100.00
42591;BME280;28218;53.342;-6.216;2023-11-21T06:41:24;102744.06;;;8.20;100.00
42591;BME280;28218;53.342;-6.216;2023-11-21T06:43:52;102748.50;;;8.20;100.00
42591;BME280;28218;53.342;-6.216;2023-11-21T06:46:20;102755.63;;;8.18;100.00
42591;BME280;28218;53.342;-6.216;2023-11-21T06:48:48;102761.69;;;8.18;100.00
42591;BME280;28218;53.342;-6.216;2023-11-21T06:51:17;102761.81;;;8.17;100.00
42591;BME280;28218;53.342;-6.216;2023-11-21T06:53:47;102767.06;;;8.17;100.00
42591;BME280;28218;53.342;-6.216;2023-11-21T06:56:16;102770.66;;;8.16;100.00
42591;BME280;28218;53.342;-6.216;2023-11-21T06:58:44;102778.63;;;8.14;100.00
42591;BME280;28218;53.342;-6.216;2023-11-21T07:01:13;102782.28;;;8.12;100.00
42591;BME280;28218;53.342;-6.216;2023-11-21T07:03:42;102766.66;;;8.10;100.00
42591;BME280;28218;53.342;-6.216;2023-11-21T07:06:10;102781.75;;;8.07;100.00
42591;BME280;28218;53.342;-6.216;2023-11-21T07:08:39;102796.56;;;8.08;100.00
42591;BME280;28218;53.342;-6.216;2023-11-21T07:11:08;102794.16;;;8.05;100.00
42591;BME280;28218;53.342;-6.216;2023-11-21T07:13:36;102781.22;;;8.02;100.00
42591;BME280;28218;53.342;-6.216;2023-11-21T07:16:05;102796.31;;;7.98;100.00
42591;BME280;28218;53.342;-6.216;2023-11-21T07:18:33;102795.59;;;7.96;100.00
42591;BME280;28218;53.342;-6.216;2023-11-21T07:21:02;102805.44;;;7.92;100.00
42591;BME280;28218;53.342;-6.216;2023-11-21T07:23:30;102818.75;;;7.89;100.00
42591;BME280;28218;53.342;-6.216;2023-11-21T07:25:58;102822.34;;;7.88;100.00
42591;BME280;28218;53.342;-6.216;2023-11-21T07:28:28;102825.06;;;7.87;100.00
42591;BME280;28218;53.342;-6.216;2023-11-21T07:30:57;102825.16;;;7.85;100.00
42591;BME280;28218;53.342;-6.216;2023-11-21T07:33:26;102820.84;;;7.84;100.00
42591;BME280;28218;53.342;-6.216;2023-11-21T07:35:55;102830.50;;;7.84;100.00
42591;BME280;28218;53.342;-6.216;2023-11-21T07:38:23;102823.56;;;7.83;100.00
42591;BME280;28218;53.342;-6.216;2023-11-21T07:40:51;102823.69;;;7.81;100.00
42591;BME280;28218;53.342;-6.216;2023-11-21T07:43:20;102827.34;;;7.79;100.00
42591;BME280;28218;53.342;-6.216;2023-11-21T07:45:50;102837.09;;;7.77;100.00
42591;BME280;28218;53.342;-6.216;2023-11-21T07:48:18;102827.63;;;7.74;100.00
42591;BME280;28218;53.342;-6.216;2023-11-21T07:50:47;102843.25;;;7.76;100.00
42591;BME280;28218;53.342;-6.216;2023-11-21T07:53:15;102847.69;;;7.75;100.00
42591;BME280;28218;53.342;-6.216;2023-11-21T07:55:43;102843.47;;;7.73;100.00
42591;BME280;28218;53.342;-6.216;2023-11-21T07:58:13;102847.78;;;7.74;100.00
42591;BME280;28218;53.342;-6.216;2023-11-21T08:00:42;102843.47;;;7.73;100.00
42591;BME280;28218;53.342;-6.216;2023-11-21T08:03:13;102846.09;;;7.73;100.00
42591;BME280;28218;53.342;-6.216;2023-11-21T08:05:41;102845.44;;;7.69;100.00
42591;BME280;28218;53.342;-6.216;2023-11-21T08:08:10;102861.94;;;7.71;100.00
42591;BME280;28218;53.342;-6.216;2023-11-21T08:10:38;102871.50;;;7.72;100.00
42591;BME280;28218;53.342;-6.216;2023-11-21T08:13:06;102872.63;;;7.68;100.00
42591;BME280;28218;53.342;-6.216;2023-11-21T08:15:36;102864.94;;;7.65;100.00
42591;BME280;28218;53.342;-6.216;2023-11-21T08:18:04;102876.28;;;7.65;100.00
42591;BME280;28218;53.342;-6.216;2023-11-21T08:20:36;102879.97;;;7.63;100.00
42591;BME280;28218;53.342;-6.216;2023-11-21T08:23:06;102870.31;;;7.63;100.00
42591;BME280;28218;53.342;-6.216;2023-11-21T08:25:34;102875.34;;;7.66;100.00
42591;BME280;28218;53.342;-6.216;2023-11-21T08:31:53;102892.69;;;7.69;100.00
42591;BME280;28218;53.342;-6.216;2023-11-21T08:34:23;102896.16;;;7.69;100.00
42591;BME280;28218;53.342;-6.216;2023-11-21T08:36:52;102900.38;;;7.72;100.00
42591;BME280;28218;53.342;-6.216;2023-11-21T08:39:20;102898.66;;;7.71;100.00
42591;BME280;28218;53.342;-6.216;2023-11-21T08:41:51;102899.44;;;7.73;100.00
42591;BME280;28218;53.342;-6.216;2023-11-21T08:44:19;102900.28;;;7.74;100.00
42591;BME280;28218;53.342;-6.216;2023-11-21T08:46:48;102911.50;;;7.76;100.00
42591;BME280;28218;53.342;-6.216;2023-11-21T08:49:16;102913.22;;;7.77;100.00
42591;BME280;28218;53.342;-6.216;2023-11-21T08:51:44;102928.84;;;7.78;100.00
42591;BME280;28218;53.342;-6.216;2023-11-21T08:54:14;102929.78;;;7.77;100.00
42591;BME280;28218;53.342;-6.216;2023-11-21T08:56:43;102935.31;;;7.87;100.00
42591;BME280;28218;53.342;-6.216;2023-11-21T08:59:11;102925.47;;;7.90;100.00
42591;BME280;28218;53.342;-6.216;2023-11-21T09:01:41;102926.00;;;7.96;100.00
42591;BME280;28218;53.342;-6.216;2023-11-21T09:04:10;102926.56;;;8.01;100.00
42591;BME280;28218;53.342;-6.216;2023-11-21T09:06:39;102924.66;;;8.03;100.00
42591;BME280;28218;53.342;-6.216;2023-11-21T09:09:07;102921.88;;;8.06;100.00
42591;BME280;28218;53.342;-6.216;2023-11-21T09:11:38;102929.53;;;8.09;100.00
42591;BME280;28218;53.342;-6.216;2023-11-21T09:14:06;102945.63;;;8.17;100.00
42591;BME280;28218;53.342;-6.216;2023-11-21T09:16:35;102951.44;;;8.22;100.00
42591;BME280;28218;53.342;-6.216;2023-11-21T09:19:04;102949.47;;;8.26;100.00
42591;BME280;28218;53.342;-6.216;2023-11-21T09:21:32;102941.28;;;8.30;100.00
42591;BME280;28218;53.342;-6.216;2023-11-21T09:24:01;102938.22;;;8.38;100.00
42591;BME280;28218;53.342;-6.216;2023-11-21T09:26:29;102932.44;;;8.45;100.00
42591;BME280;28218;53.342;-6.216;2023-11-21T09:28:59;102933.75;;;8.53;100.00
42591;BME280;28218;53.342;-6.216;2023-11-21T09:31:29;102940.47;;;8.57;100.00
42591;BME280;28218;53.342;-6.216;2023-11-21T09:33:58;102940.25;;;8.60;100.00
42591;BME280;28218;53.342;-6.216;2023-11-21T09:36:26;102936.50;;;8.64;100.00
42591;BME280;28218;53.342;-6.216;2023-11-21T09:38:56;102945.22;;;8.64;100.00
42591;BME280;28218;53.342;-6.216;2023-11-21T09:41:30;102935.53;;;8.65;100.00
42591;BME280;28218;53.342;-6.216;2023-11-21T09:44:05;102933.97;;;8.62;100.00
42591;BME280;28218;53.342;-6.216;2023-11-21T09:46:40;102933.84;;;8.64;100.00
42591;BME280;28218;53.342;-6.216;2023-11-21T09:49:10;102926.16;;;8.61;100.00
42591;BME280;28218;53.342;-6.216;2023-11-21T09:51:42;102922.50;;;8.63;100.00
42591;BME280;28218;53.342;-6.216;2023-11-21T09:54:11;102920.72;;;8.64;100.00
42591;BME280;28218;53.342;-6.216;2023-11-21T09:56:40;102923.34;;;8.64;100.00
42591;BME280;28218;53.342;-6.216;2023-11-21T09:59:13;102934.41;;;8.69;100.00
42591;BME280;28218;53.342;-6.216;2023-11-21T10:01:43;102928.19;;;8.70;100.00
42591;BME280;28218;53.342;-6.216;2023-11-21T10:04:11;102930.81;;;8.70;100.00
42591;BME280;28218;53.342;-6.216;2023-11-21T10:06:40;102926.72;;;8.66;100.00
42591;BME280;28218;53.342;-6.216;2023-11-21T10:09:10;102913.38;;;8.69;100.00
42591;BME280;28218;53.342;-6.216;2023-11-21T10:11:40;102924.41;;;8.74;100.00
42591;BME280;28218;53.342;-6.216;2023-11-21T10:14:12;102913.91;;;8.74;100.00
42591;BME280;28218;53.342;-6.216;2023-11-21T10:16:41;102915.19;;;8.81;100.00
42591;BME280;28218;53.342;-6.216;2023-11-21T10:19:14;102921.19;;;8.83;100.00
42591;BME280;28218;53.342;-6.216;2023-11-21T10:21:44;102922.66;;;8.87;100.00
42591;BME280;28218;53.342;-6.216;2023-11-21T10:24:12;102927.50;;;8.93;100.00
42591;BME280;28218;53.342;-6.216;2023-11-21T10:26:41;102926.34;;;8.98;100.00
42591;BME280;28218;53.342;-6.216;2023-11-21T10:29:20;102918.38;;;8.99;100.00
42591;BME280;28218;53.342;-6.216;2023-11-21T10:31:49;102916.28;;;9.04;100.00
42591;BME280;28218;53.342;-6.216;2023-11-21T10:34:20;102914.25;;;9.08;100.00
42591;BME280;28218;53.342;-6.216;2023-11-21T10:36:49;102924.38;;;9.14;100.00
42591;BME280;28218;53.342;-6.216;2023-11-21T10:39:17;102929.41;;;9.17;100.00
42591;BME280;28218;53.342;-6.216;2023-11-21T10:41:47;102934.25;;;9.23;100.00
42591;BME280;28218;53.342;-6.216;2023-11-21T10:44:16;102929.41;;;9.30;100.00
42591;BME280;28218;53.342;-6.216;2023-11-21T10:46:51;102928.13;;;9.35;100.00
42591;BME280;28218;53.342;-6.216;2023-11-21T10:49:25;102922.25;;;9.44;100.00
42591;BME280;28218;53.342;-6.216;2023-11-21T10:51:54;102927.94;;;9.51;100.00
42591;BME280;28218;53.342;-6.216;2023-11-21T10:54:25;102937.06;;;9.58;100.00
42591;BME280;28218;53.342;-6.216;2023-11-21T10:56:56;102937.59;;;9.63;100.00
42591;BME280;28218;53.342;-6.216;2023-11-21T10:59:28;102950.94;;;9.73;100.00
42591;BME280;28218;53.342;-6.216;2023-11-21T11:02:01;102962.63;;;9.82;100.00
42591;BME280;28218;53.342;-6.216;2023-11-21T11:04:36;102945.13;;;9.93;100.00
42591;BME280;28218;53.342;-6.216;2023-11-21T11:07:05;102959.44;;;10.02;100.00
42591;BME280;28218;53.342;-6.216;2023-11-21T11:09:38;102955.50;;;10.08;100.00
42591;BME280;28218;53.342;-6.216;2023-11-21T11:12:06;102948.63;;;10.18;100.00
42591;BME280;28218;53.342;-6.216;2023-11-21T11:14:35;102953.47;;;10.24;100.00
42591;BME280;28218;53.342;-6.216;2023-11-21T11:17:05;102965.97;;;10.33;100.00
42591;BME280;28218;53.342;-6.216;2023-11-21T11:19:35;102967.09;;;10.42;100.00
42591;BME280;28218;53.342;-6.216;2023-11-21T11:22:13;102961.38;;;10.48;100.00
42591;BME280;28218;53.342;-6.216;2023-11-21T11:24:59;102952.91;;;10.56;100.00
42591;BME280;28218;53.342;-6.216;2023-11-21T11:27:39;102942.16;;;10.59;100.00
42591;BME280;28218;53.342;-6.216;2023-11-21T11:30:17;102941.91;;;10.62;100.00
42591;BME280;28218;53.342;-6.216;2023-11-21T11:32:57;102943.38;;;10.66;100.00
42591;BME280;28218;53.342;-6.216;2023-11-21T11:35:31;102938.59;;;10.71;100.00
42591;BME280;28218;53.342;-6.216;2023-11-21T11:38:01;102936.44;;;10.76;100.00
42591;BME280;28218;53.342;-6.216;2023-11-21T11:40:40;102926.38;;;10.81;100.00
42591;BME280;28218;53.342;-6.216;2023-11-21T11:43:09;102915.38;;;10.87;100.00
42591;BME280;28218;53.342;-6.216;2023-11-21T11:45:37;102902.44;;;10.95;100.00
42591;BME280;28218;53.342;-6.216;2023-11-21T11:48:11;102911.44;;;11.04;100.00
42591;BME280;28218;53.342;-6.216;2023-11-21T11:51:01;102894.31;;;11.10;100.00
42591;BME280;28218;53.342;-6.216;2023-11-21T11:53:35;102896.34;;;11.17;100.00
42591;BME280;28218;53.342;-6.216;2023-11-21T11:56:21;102899.34;;;11.13;100.00
42591;BME280;28218;53.342;-6.216;2023-11-21T11:58:50;102922.38;;;11.11;100.00
42591;BME280;28218;53.342;-6.216;2023-11-21T12:01:19;102935.59;;;11.11;100.00
42591;BME280;28218;53.342;-6.216;2023-11-21T12:04:26;102934.84;;;11.09;100.00
42591;BME280;28218;53.342;-6.216;2023-11-21T12:07:05;102927.91;;;11.08;100.00
42591;BME280;28218;53.342;-6.216;2023-11-21T12:09:33;102931.72;;;11.04;100.00
42591;BME280;28218;53.342;-6.216;2023-11-21T12:12:02;102933.38;;;11.05;100.00
42591;BME280;28218;53.342;-6.216;2023-11-21T12:14:31;102939.75;;;11.02;100.00
42591;BME280;28218;53.342;-6.216;2023-11-21T12:16:59;102936.50;;;10.98;100.00
42591;BME280;28218;53.342;-6.216;2023-11-21T12:19:30;102952.81;;;10.92;100.00
42591;BME280;28218;53.342;-6.216;2023-11-21T12:21:59;102952.91;;;10.91;100.00
42591;BME280;28218;53.342;-6.216;2023-11-21T12:24:27;102946.91;;;10.89;100.00
42591;BME280;28218;53.342;-6.216;2023-11-21T12:26:56;102942.59;;;10.88;100.00
42591;BME280;28218;53.342;-6.216;2023-11-21T12:29:24;102938.38;;;10.85;100.00
42591;BME280;28218;53.342;-6.216;2023-11-21T12:31:52;102943.03;;;10.82;100.00
42591;BME280;28218;53.342;-6.216;2023-11-21T12:34:20;102937.06;;;10.80;100.00
42591;BME280;28218;53.342;-6.216;2023-11-21T12:36:51;102941.28;;;10.82;100.00
42591;BME280;28218;53.342;-6.216;2023-11-21T12:39:22;102947.75;;;10.89;100.00
42591;BME280;28218;53.342;-6.216;2023-11-21T12:41:51;102954.00;;;10.99;100.00
42591;BME280;28218;53.342;-6.216;2023-11-21T12:44:20;102952.59;;;11.07;100.00
42591;BME280;28218;53.342;-6.216;2023-11-21T12:46:50;102951.41;;;11.11;100.00
42591;BME280;28218;53.342;-6.216;2023-11-21T12:49:19;102958.38;;;11.12;100.00
42591;BME280;28218;53.342;-6.216;2023-11-21T12:51:48;102961.72;;;11.14;100.00
42591;BME280;28218;53.342;-6.216;2023-11-21T12:54:18;102961.72;;;11.14;100.00